sensor_id;sensor_type;location;lat;lon;timestamp;pressure;altitude;pressure_sealevel;temperature;humidity
43707;BME280;61348;53.392;-6.248;2022-08-14T00:02:01;100538.31;;;19.93;63.57
43707;BME280;61348;53.392;-6.248;2022-08-14T00:04:33;100546.31;;;19.91;63.16
43707;BME280;61348;53.392;-6.248;2022-08-14T00:07:11;100535.88;;;19.92;63.32
43707;BME280;61348;53.392;-6.248;2022-08-14T00:09:40;100531.91;;;19.89;63.27
43707;BME280;61348;53.392;-6.248;2022-08-14T00:12:27;100533.94;;;19.85;63.52
43707;BME280;61348;53.392;-6.248;2022-08-14T00:15:17;100535.53;;;19.86;63.42
43707;BME280;61348;53.392;-6.248;2022-08-14T00:17:48;100534.34;;;19.84;63.57
43707;BME280;61348;53.392;-6.248;2022-08-14T00:20:22;100528.75;;;19.80;63.53
43707;BME280;61348;53.392;-6.248;2022-08-14T00:23:05;100530.78;;;19.80;63.62
43707;BME280;61348;53.392;-6.248;2022-08-14T00:25:44;100526.78;;;19.77;63.72
43707;BME280;61348;53.392;-6.248;2022-08-14T00:28:32;100530.38;;;19.78;63.49
43707;BME280;61348;53.392;-6.248;2022-08-14T00:31:02;100522.38;;;19.76;63.64
43707;BME280;61348;53.392;-6.248;2022-08-14T00:33:30;100527.59;;;19.74;63.84
43707;BME280;61348;53.392;-6.248;2022-08-14T00:36:17;100524.00;;;19.70;63.89
43707;BME280;61348;53.392;-6.248;2022-08-14T00:39:04;100535.25;;;19.70;63.68
43707;BME280;61348;53.392;-6.248;2022-08-14T00:41:34;100526.81;;;19.70;63.68
43707;BME280;61348;53.392;-6.248;2022-08-14T00:44:04;100523.63;;;19.68;63.97
43707;BME280;61348;53.392;-6.248;2022-08-14T00:46:31;100515.56;;;19.70;63.69
43707;BME280;61348;53.392;-6.248;2022-08-14T00:48:59;100522.00;;;19.71;63.62
43707;BME280;61348;53.392;-6.248;2022-08-14T00:51:27;100523.63;;;19.68;63.90
43707;BME280;61348;53.392;-6.248;2022-08-14T00:54:07;100520.81;;;19.68;63.99
43707;BME280;61348;53.392;-6.248;2022-08-14T00:56:49;100523.25;;;19.63;63.83
43707;BME280;61348;53.392;-6.248;2022-08-14T00:59:16;100522.47;;;19.62;63.74
43707;BME280;61348;53.392;-6.248;2022-08-14T01:01:44;100513.66;;;19.60;64.04
43707;BME280;61348;53.392;-6.248;2022-08-14T01:04:11;100514.84;;;19.59;64.06
43707;BME280;61348;53.392;-6.248;2022-08-14T01:06:58;100520.09;;;19.57;63.83
43707;BME280;61348;53.392;-6.248;2022-08-14T01:09:30;100513.28;;;19.58;63.99
43707;BME280;61348;53.392;-6.248;2022-08-14T01:11:57;100510.47;;;19.58;63.66
43707;BME280;61348;53.392;-6.248;2022-08-14T01:14:28;100504.84;;;19.58;63.67
43707;BME280;61348;53.392;-6.248;2022-08-14T01:16:55;100503.63;;;19.59;63.66
43707;BME280;61348;53.392;-6.248;2022-08-14T01:19:23;100493.63;;;19.58;63.75
43707;BME280;61348;53.392;-6.248;2022-08-14T01:22:11;100497.66;;;19.54;63.72
43707;BME280;61348;53.392;-6.248;2022-08-14T01:24:44;100494.88;;;19.50;63.75
43707;BME280;61348;53.392;-6.248;2022-08-14T01:27:19;100488.09;;;19.44;63.84
43707;BME280;61348;53.392;-6.248;2022-08-14T01:29:52;100486.88;;;19.45;63.80
43707;BME280;61348;53.392;-6.248;2022-08-14T01:32:31;100487.28;;;19.47;63.67
43707;BME280;61348;53.392;-6.248;2022-08-14T01:35:03;100482.84;;;19.46;63.68
43707;BME280;61348;53.392;-6.248;2022-08-14T01:37:53;100478.50;;;19.38;63.90
43707;BME280;61348;53.392;-6.248;2022-08-14T01:40:24;100474.50;;;19.32;64.07
43707;BME280;61348;53.392;-6.248;2022-08-14T01:43:11;100467.34;;;19.24;64.17
43707;BME280;61348;53.392;-6.248;2022-08-14T01:45:40;100462.56;;;19.21;64.22
43707;BME280;61348;53.392;-6.248;2022-08-14T01:48:07;100460.13;;;19.23;64.26
43707;BME280;61348;53.392;-6.248;2022-08-14T01:50:40;100460.19;;;19.16;64.07
43707;BME280;61348;53.392;-6.248;2022-08-14T01:53:07;100463.41;;;19.11;64.21
43707;BME280;61348;53.392;-6.248;2022-08-14T01:55:36;100465.44;;;19.07;64.63
43707;BME280;61348;53.392;-6.248;2022-08-14T01:58:06;100461.03;;;19.06;64.76
43707;BME280;61348;53.392;-6.248;2022-08-14T02:00:54;100457.81;;;19.04;64.80
43707;BME280;61348;53.392;-6.248;2022-08-14T02:03:24;100457.81;;;19.11;64.92
43707;BME280;61348;53.392;-6.248;2022-08-14T02:06:00;100452.19;;;19.11;64.93
43707;BME280;61348;53.392;-6.248;2022-08-14T02:08:47;100435.38;;;19.07;65.05
43707;BME280;61348;53.392;-6.248;2022-08-14T02:11:21;100445.03;;;19.03;65.08
43707;BME280;61348;53.392;-6.248;2022-08-14T02:16:22;100435.44;;;18.97;65.48
43707;BME280;61348;53.392;-6.248;2022-08-14T02:18:55;100440.22;;;18.96;65.73
43707;BME280;61348;53.392;-6.248;2022-08-14T02:21:24;100430.63;;;18.94;65.44
43707;BME280;61348;53.392;-6.248;2022-08-14T02:23:54;100426.63;;;18.95;65.81
43707;BME280;61348;53.392;-6.248;2022-08-14T02:26:28;100418.22;;;18.95;65.77
43707;BME280;61348;53.392;-6.248;2022-08-14T02:28:59;100419.41;;;18.94;65.99
43707;BME280;61348;53.392;-6.248;2022-08-14T02:31:32;100415.84;;;18.90;66.03
43707;BME280;61348;53.392;-6.248;2022-08-14T02:34:33;100420.66;;;18.89;66.06
43707;BME280;61348;53.392;-6.248;2022-08-14T02:37:04;100419.47;;;18.87;66.04
43707;BME280;61348;53.392;-6.248;2022-08-14T02:39:39;100421.47;;;18.86;66.24
43707;BME280;61348;53.392;-6.248;2022-08-14T02:42:09;100426.25;;;18.85;66.31
43707;BME280;61348;53.392;-6.248;2022-08-14T02:44:42;100413.47;;;18.84;66.49
43707;BME280;61348;53.392;-6.248;2022-08-14T02:47:15;100421.88;;;18.84;66.28
43707;BME280;61348;53.392;-6.248;2022-08-14T02:49:46;100422.72;;;18.78;66.48
43707;BME280;61348;53.392;-6.248;2022-08-14T02:52:20;100411.13;;;18.72;66.70
43707;BME280;61348;53.392;-6.248;2022-08-14T02:55:07;100421.16;;;18.70;66.87
43707;BME280;61348;53.392;-6.248;2022-08-14T02:57:35;100419.56;;;18.65;67.14
43707;BME280;61348;53.392;-6.248;2022-08-14T03:00:07;100420.38;;;18.62;67.28
43707;BME280;61348;53.392;-6.248;2022-08-14T03:02:35;100405.97;;;18.60;67.56
43707;BME280;61348;53.392;-6.248;2022-08-14T03:05:22;100404.78;;;18.58;67.38
43707;BME280;61348;53.392;-6.248;2022-08-14T03:07:49;100403.59;;;18.55;67.69
43707;BME280;61348;53.392;-6.248;2022-08-14T03:10:18;100400.38;;;18.53;67.71
43707;BME280;61348;53.392;-6.248;2022-08-14T03:12:52;100395.19;;;18.52;67.68
43707;BME280;61348;53.392;-6.248;2022-08-14T03:15:19;100390.78;;;18.51;67.74
43707;BME280;61348;53.392;-6.248;2022-08-14T03:17:46;100396.38;;;18.51;67.84
43707;BME280;61348;53.392;-6.248;2022-08-14T03:20:27;100395.56;;;18.54;67.90
43707;BME280;61348;53.392;-6.248;2022-08-14T03:22:56;100389.16;;;18.53;68.00
43707;BME280;61348;53.392;-6.248;2022-08-14T03:25:28;100387.97;;;18.54;67.94
43707;BME280;61348;53.392;-6.248;2022-08-14T03:28:04;100389.16;;;18.53;68.04
43707;BME280;61348;53.392;-6.248;2022-08-14T03:30:33;100383.56;;;18.53;68.23
43707;BME280;61348;53.392;-6.248;2022-08-14T03:33:08;100379.97;;;18.53;68.19
43707;BME280;61348;53.392;-6.248;2022-08-14T03:35:36;100375.56;;;18.52;68.14
43707;BME280;61348;53.392;-6.248;2022-08-14T03:38:23;100376.75;;;18.54;68.28
43707;BME280;61348;53.392;-6.248;2022-08-14T03:41:11;100373.56;;;18.52;68.32
43707;BME280;61348;53.392;-6.248;2022-08-14T03:43:50;100371.97;;;18.51;68.29
43707;BME280;61348;53.392;-6.248;2022-08-14T03:46:29;100362.78;;;18.47;68.42
43707;BME280;61348;53.392;-6.248;2022-08-14T03:49:16;100351.56;;;18.47;68.53
43707;BME280;61348;53.392;-6.248;2022-08-14T03:51:54;100347.53;;;18.48;68.44
43707;BME280;61348;53.392;-6.248;2022-08-14T03:54:23;100340.75;;;18.49;68.49
43707;BME280;61348;53.392;-6.248;2022-08-14T03:56:51;100353.56;;;18.50;68.40
43707;BME280;61348;53.392;-6.248;2022-08-14T03:59:20;100338.75;;;18.50;68.63
43707;BME280;61348;53.392;-6.248;2022-08-14T04:01:47;100339.53;;;18.50;68.63
43707;BME280;61348;53.392;-6.248;2022-08-14T04:04:29;100340.34;;;18.47;68.70
43707;BME280;61348;53.392;-6.248;2022-08-14T04:06:57;100334.34;;;18.45;68.70
43707;BME280;61348;53.392;-6.248;2022-08-14T04:09:26;100329.94;;;18.44;68.85
43707;BME280;61348;53.392;-6.248;2022-08-14T04:11:54;100325.13;;;18.45;68.97
43707;BME280;61348;53.392;-6.248;2022-08-14T04:14:25;100331.53;;;18.45;68.88
43707;BME280;61348;53.392;-6.248;2022-08-14T04:16:51;100329.94;;;18.44;68.64
43707;BME280;61348;53.392;-6.248;2022-08-14T04:19:18;100322.72;;;18.43;68.77
43707;BME280;61348;53.392;-6.248;2022-08-14T04:21:50;100328.31;;;18.43;68.72
43707;BME280;61348;53.392;-6.248;2022-08-14T04:24:31;100315.53;;;18.42;68.83
43707;BME280;61348;53.392;-6.248;2022-08-14T04:27:07;100313.91;;;18.41;68.71
43707;BME280;61348;53.392;-6.248;2022-08-14T04:29:40;100313.53;;;18.39;68.97
43707;BME280;61348;53.392;-6.248;2022-08-14T04:32:09;100309.13;;;18.38;69.04
43707;BME280;61348;53.392;-6.248;2022-08-14T04:34:56;100308.38;;;18.34;69.18
43707;BME280;61348;53.392;-6.248;2022-08-14T04:37:25;100295.16;;;18.35;69.29
43707;BME280;61348;53.392;-6.248;2022-08-14T04:40:12;100303.56;;;18.31;69.35
43707;BME280;61348;53.392;-6.248;2022-08-14T04:43:00;100304.38;;;18.28;69.49
43707;BME280;61348;53.392;-6.248;2022-08-14T04:45:46;100293.97;;;18.25;69.54
43707;BME280;61348;53.392;-6.248;2022-08-14T04:48:17;100298.78;;;18.24;69.61
43707;BME280;61348;53.392;-6.248;2022-08-14T04:51:11;100298.41;;;18.26;69.54
43707;BME280;61348;53.392;-6.248;2022-08-14T04:53:41;100292.78;;;18.26;69.82
43707;BME280;61348;53.392;-6.248;2022-08-14T04:56:15;100302.38;;;18.25;69.88
43707;BME280;61348;53.392;-6.248;2022-08-14T04:59:01;100292.78;;;18.26;69.75
43707;BME280;61348;53.392;-6.248;2022-08-14T05:01:36;100295.59;;;18.26;69.85
43707;BME280;61348;53.392;-6.248;2022-08-14T05:04:06;100295.59;;;18.26;69.88
43707;BME280;61348;53.392;-6.248;2022-08-14T05:06:41;100302.00;;;18.23;70.03
43707;BME280;61348;53.392;-6.248;2022-08-14T05:09:10;100296.03;;;18.21;69.97
43707;BME280;61348;53.392;-6.248;2022-08-14T05:11:39;100288.81;;;18.20;70.22
43707;BME280;61348;53.392;-6.248;2022-08-14T05:14:06;100291.59;;;18.20;70.28
43707;BME280;61348;53.392;-6.248;2022-08-14T05:16:53;100291.59;;;18.20;70.19
43707;BME280;61348;53.392;-6.248;2022-08-14T05:19:22;100289.59;;;18.20;70.35
43707;BME280;61348;53.392;-6.248;2022-08-14T05:21:55;100284.41;;;18.19;70.50
43707;BME280;61348;53.392;-6.248;2022-08-14T05:24:46;100286.00;;;18.20;70.48
43707;BME280;61348;53.392;-6.248;2022-08-14T05:27:18;100280.03;;;18.18;70.40
43707;BME280;61348;53.392;-6.248;2022-08-14T05:29:50;100280.78;;;18.22;70.52
43707;BME280;61348;53.392;-6.248;2022-08-14T05:32:17;100286.81;;;18.24;70.62
43707;BME280;61348;53.392;-6.248;2022-08-14T05:34:45;100292.41;;;18.24;70.76
43707;BME280;61348;53.392;-6.248;2022-08-14T05:37:13;100290.00;;;18.22;70.87
43707;BME280;61348;53.392;-6.248;2022-08-14T05:39:41;100292.78;;;18.22;71.08
43707;BME280;61348;53.392;-6.248;2022-08-14T05:42:08;100292.41;;;18.24;71.25
43707;BME280;61348;53.392;-6.248;2022-08-14T05:44:52;100296.41;;;18.27;71.17
43707;BME280;61348;53.392;-6.248;2022-08-14T05:47:20;100296.75;;;18.32;71.16
43707;BME280;61348;53.392;-6.248;2022-08-14T05:49:47;100302.75;;;18.34;71.15
43707;BME280;61348;53.392;-6.248;2022-08-14T05:52:14;100296.34;;;18.37;71.25
43707;BME280;61348;53.392;-6.248;2022-08-14T05:54:43;100288.31;;;18.39;71.33
43707;BME280;61348;53.392;-6.248;2022-08-14T05:57:10;100292.31;;;18.42;71.36
43707;BME280;61348;53.392;-6.248;2022-08-14T05:59:37;100288.69;;;18.45;71.39
43707;BME280;61348;53.392;-6.248;2022-08-14T06:02:09;100288.69;;;18.48;71.42
43707;BME280;61348;53.392;-6.248;2022-08-14T06:04:39;100287.44;;;18.56;71.59
43707;BME280;61348;53.392;-6.248;2022-08-14T06:07:14;100289.38;;;18.66;71.42
43707;BME280;61348;53.392;-6.248;2022-08-14T06:09:42;100290.53;;;18.72;71.50
43707;BME280;61348;53.392;-6.248;2022-08-14T06:12:16;100283.66;;;18.80;71.64
43707;BME280;61348;53.392;-6.248;2022-08-14T06:15:05;100292.03;;;18.88;71.59
43707;BME280;61348;53.392;-6.248;2022-08-14T06:17:47;100283.94;;;18.97;71.70
43707;BME280;61348;53.392;-6.248;2022-08-14T06:20:24;100288.28;;;19.05;71.74
43707;BME280;61348;53.392;-6.248;2022-08-14T06:22:51;100290.25;;;19.11;71.61
43707;BME280;61348;53.392;-6.248;2022-08-14T06:25:17;100289.38;;;19.18;71.58
43707;BME280;61348;53.392;-6.248;2022-08-14T06:27:47;100292.53;;;19.23;71.72
43707;BME280;61348;53.392;-6.248;2022-08-14T06:30:17;100278.47;;;19.27;71.63
43707;BME280;61348;53.392;-6.248;2022-08-14T06:32:45;100282.03;;;19.31;71.46
43707;BME280;61348;53.392;-6.248;2022-08-14T06:35:18;100277.16;;;19.38;71.35
43707;BME280;61348;53.392;-6.248;2022-08-14T06:37:59;100276.31;;;19.45;71.27
43707;BME280;61348;53.392;-6.248;2022-08-14T06:40:33;100280.66;;;19.50;71.02
43707;BME280;61348;53.392;-6.248;2022-08-14T06:43:06;100282.63;;;19.56;71.00
43707;BME280;61348;53.392;-6.248;2022-08-14T06:45:35;100277.75;;;19.60;71.21
43707;BME280;61348;53.392;-6.248;2022-08-14T06:48:12;100280.47;;;19.67;71.23
43707;BME280;61348;53.392;-6.248;2022-08-14T06:50:44;100284.44;;;19.73;71.11
43707;BME280;61348;53.392;-6.248;2022-08-14T06:53:12;100283.13;;;19.81;70.66
43707;BME280;61348;53.392;-6.248;2022-08-14T06:55:40;100281.84;;;19.89;70.80
43707;BME280;61348;53.392;-6.248;2022-08-14T06:58:26;100274.16;;;19.93;70.54
43707;BME280;61348;53.392;-6.248;2022-08-14T07:00:56;100276.13;;;19.96;70.46
43707;BME280;61348;53.392;-6.248;2022-08-14T07:03:45;100279.31;;;19.98;70.47
43707;BME280;61348;53.392;-6.248;2022-08-14T07:06:38;100274.88;;;20.01;70.24
43707;BME280;61348;53.392;-6.248;2022-08-14T07:09:12;100272.00;;;20.04;70.34
43707;BME280;61348;53.392;-6.248;2022-08-14T07:11:47;100274.75;;;20.12;70.33
43707;BME280;61348;53.392;-6.248;2022-08-14T07:14:15;100269.00;;;20.19;70.01
43707;BME280;61348;53.392;-6.248;2022-08-14T07:16:41;100268.56;;;20.24;70.00
43707;BME280;61348;53.392;-6.248;2022-08-14T07:19:08;100256.84;;;20.29;69.69
43707;BME280;61348;53.392;-6.248;2022-08-14T07:21:36;100270.41;;;20.37;70.07
43707;BME280;61348;53.392;-6.248;2022-08-14T07:24:03;100263.09;;;20.43;69.81
43707;BME280;61348;53.392;-6.248;2022-08-14T07:26:34;100261.38;;;20.49;69.80
43707;BME280;61348;53.392;-6.248;2022-08-14T07:29:04;100258.47;;;20.56;69.52
43707;BME280;61348;53.392;-6.248;2022-08-14T07:31:32;100258.78;;;20.62;69.30
43707;BME280;61348;53.392;-6.248;2022-08-14T07:33:59;100262.69;;;20.68;69.15
43707;BME280;61348;53.392;-6.248;2022-08-14T07:36:29;100265.84;;;20.74;69.29
43707;BME280;61348;53.392;-6.248;2022-08-14T07:38:59;100255.34;;;20.78;68.92
43707;BME280;61348;53.392;-6.248;2022-08-14T07:41:38;100268.13;;;20.82;68.94
43707;BME280;61348;53.392;-6.248;2022-08-14T07:44:08;100258.34;;;20.90;68.84
43707;BME280;61348;53.392;-6.248;2022-08-14T07:46:56;100256.16;;;21.01;68.20
43707;BME280;61348;53.392;-6.248;2022-08-14T07:49:24;100262.50;;;21.05;68.07
43707;BME280;61348;53.392;-6.248;2022-08-14T07:51:51;100249.13;;;21.13;67.88
43707;BME280;61348;53.392;-6.248;2022-08-14T07:54:17;100260.69;;;21.18;68.04
43707;BME280;61348;53.392;-6.248;2022-08-14T07:56:56;100255.81;;;21.22;67.77
43707;BME280;61348;53.392;-6.248;2022-08-14T07:59:26;100252.06;;;21.29;67.57
43707;BME280;61348;53.392;-6.248;2022-08-14T08:02:11;100256.81;;;21.32;67.42
43707;BME280;61348;53.392;-6.248;2022-08-14T08:04:48;100259.94;;;21.38;67.19
43707;BME280;61348;53.392;-6.248;2022-08-14T08:07:21;100252.59;;;21.44;66.97
43707;BME280;61348;53.392;-6.248;2022-08-14T08:09:51;100249.28;;;21.49;66.94
43707;BME280;61348;53.392;-6.248;2022-08-14T08:12:20;100252.69;;;21.60;67.51
43707;BME280;61348;53.392;-6.248;2022-08-14T08:14:56;100243.88;;;21.77;67.89
43707;BME280;61348;53.392;-6.248;2022-08-14T08:17:35;100249.56;;;21.97;68.15
43707;BME280;61348;53.392;-6.248;2022-08-14T08:20:06;100246.72;;;22.17;68.08
43707;BME280;61348;53.392;-6.248;2022-08-14T08:22:38;100243.75;;;22.40;67.93
43707;BME280;61348;53.392;-6.248;2022-08-14T08:25:08;100239.28;;;22.59;68.01
43707;BME280;61348;53.392;-6.248;2022-08-14T08:27:39;100241.38;;;22.90;67.15
43707;BME280;61348;53.392;-6.248;2022-08-14T08:30:10;100235.81;;;23.19;65.51
43707;BME280;61348;53.392;-6.248;2022-08-14T08:32:39;100243.31;;;23.71;64.17
43707;BME280;61348;53.392;-6.248;2022-08-14T08:35:21;100230.13;;;24.34;62.25
43707;BME280;61348;53.392;-6.248;2022-08-14T08:37:50;100237.41;;;24.86;60.30
43707;BME280;61348;53.392;-6.248;2022-08-14T08:40:32;100240.34;;;25.41;58.55
43707;BME280;61348;53.392;-6.248;2022-08-14T08:48:24;100234.44;;;26.75;53.76
43707;BME280;61348;53.392;-6.248;2022-08-14T08:51:05;100245.44;;;27.04;52.38
43707;BME280;61348;53.392;-6.248;2022-08-14T08:53:33;100236.19;;;27.31;51.30
43707;BME280;61348;53.392;-6.248;2022-08-14T08:56:02;100237.44;;;27.39;50.80
43707;BME280;61348;53.392;-6.248;2022-08-14T08:58:30;100239.97;;;27.37;50.14
43707;BME280;61348;53.392;-6.248;2022-08-14T09:00:58;100232.66;;;26.99;50.64
43707;BME280;61348;53.392;-6.248;2022-08-14T09:03:29;100231.69;;;26.93;50.92
43707;BME280;61348;53.392;-6.248;2022-08-14T09:05:59;100240.09;;;27.15;50.13
43707;BME280;61348;53.392;-6.248;2022-08-14T09:08:31;100237.78;;;27.32;50.02
43707;BME280;61348;53.392;-6.248;2022-08-14T09:11:07;100231.91;;;27.35;49.03
43707;BME280;61348;53.392;-6.248;2022-08-14T09:13:51;100236.53;;;27.42;49.40
43707;BME280;61348;53.392;-6.248;2022-08-14T09:16:22;100237.31;;;27.51;48.65
43707;BME280;61348;53.392;-6.248;2022-08-14T09:18:50;100237.44;;;27.20;48.73
43707;BME280;61348;53.392;-6.248;2022-08-14T09:21:20;100234.44;;;26.66;49.12
43707;BME280;61348;53.392;-6.248;2022-08-14T09:23:51;100233.00;;;26.09;50.58
43707;BME280;61348;53.392;-6.248;2022-08-14T09:26:40;100241.47;;;25.78;50.92
43707;BME280;61348;53.392;-6.248;2022-08-14T09:29:15;100238.66;;;25.66;51.07
43707;BME280;61348;53.392;-6.248;2022-08-14T09:31:44;100226.75;;;25.49;51.74
43707;BME280;61348;53.392;-6.248;2022-08-14T09:45:37;100228.66;;;25.95;51.22
43707;BME280;61348;53.392;-6.248;2022-08-14T09:48:21;100233.09;;;26.49;50.31
43707;BME280;61348;53.392;-6.248;2022-08-14T09:50:56;100225.06;;;26.96;49.71
43707;BME280;61348;53.392;-6.248;2022-08-14T09:53:41;100232.13;;;27.50;48.63
43707;BME280;61348;53.392;-6.248;2022-08-14T09:56:29;100232.75;;;27.72;47.69
43707;BME280;61348;53.392;-6.248;2022-08-14T09:59:09;100227.69;;;27.76;47.31
43707;BME280;61348;53.392;-6.248;2022-08-14T10:01:42;100220.13;;;27.55;47.31
43707;BME280;61348;53.392;-6.248;2022-08-14T10:04:24;100232.34;;;27.06;47.85
43707;BME280;61348;53.392;-6.248;2022-08-14T10:07:01;100229.50;;;26.57;48.81
43707;BME280;61348;53.392;-6.248;2022-08-14T10:09:29;100221.44;;;26.56;49.01
43707;BME280;61348;53.392;-6.248;2022-08-14T10:12:01;100210.94;;;26.75;48.38
43707;BME280;61348;53.392;-6.248;2022-08-14T10:14:32;100216.22;;;27.03;48.24
43707;BME280;61348;53.392;-6.248;2022-08-14T10:17:03;100218.16;;;27.15;47.69
43707;BME280;61348;53.392;-6.248;2022-08-14T10:19:33;100212.97;;;27.23;47.50
43707;BME280;61348;53.392;-6.248;2022-08-14T10:22:04;100207.91;;;27.27;47.35
43707;BME280;61348;53.392;-6.248;2022-08-14T10:24:53;100202.09;;;27.49;47.27
43707;BME280;61348;53.392;-6.248;2022-08-14T10:27:24;100207.63;;;27.70;46.83
43707;BME280;61348;53.392;-6.248;2022-08-14T10:29:54;100198.41;;;27.94;46.07
43707;BME280;61348;53.392;-6.248;2022-08-14T10:32:26;100195.31;;;28.43;45.42
43707;BME280;61348;53.392;-6.248;2022-08-14T10:35:10;100186.97;;;28.95;44.15
43707;BME280;61348;53.392;-6.248;2022-08-14T10:37:47;100186.47;;;28.97;44.67
43707;BME280;61348;53.392;-6.248;2022-08-14T10:40:25;100178.97;;;29.09;44.01
43707;BME280;61348;53.392;-6.248;2022-08-14T10:43:31;100174.34;;;29.11;44.00
43707;BME280;61348;53.392;-6.248;2022-08-14T10:46:01;100168.34;;;29.09;43.66
43707;BME280;61348;53.392;-6.248;2022-08-14T10:48:59;100164.41;;;29.07;43.86
43707;BME280;61348;53.392;-6.248;2022-08-14T10:51:29;100160.81;;;28.97;44.50
43707;BME280;61348;53.392;-6.248;2022-08-14T10:54:06;100151.81;;;28.98;44.11
43707;BME280;61348;53.392;-6.248;2022-08-14T10:57:17;100152.09;;;28.77;44.65
43707;BME280;61348;53.392;-6.248;2022-08-14T10:59:45;100145.34;;;28.65;44.39
43707;BME280;61348;53.392;-6.248;2022-08-14T11:05:10;100134.88;;;28.38;45.14
43707;BME280;61348;53.392;-6.248;2022-08-14T11:07:42;100123.25;;;28.27;44.99
43707;BME280;61348;53.392;-6.248;2022-08-14T11:10:24;100116.78;;;28.18;45.02
43707;BME280;61348;53.392;-6.248;2022-08-14T11:12:55;100120.28;;;28.13;45.56
43707;BME280;61348;53.392;-6.248;2022-08-14T11:15:24;100110.16;;;28.12;45.20
43707;BME280;61348;53.392;-6.248;2022-08-14T11:17:54;100106.41;;;28.06;45.45
43707;BME280;61348;53.392;-6.248;2022-08-14T11:20:28;100098.81;;;28.03;45.70
43707;BME280;61348;53.392;-6.248;2022-08-14T11:22:58;100087.94;;;27.92;45.78
43707;BME280;61348;53.392;-6.248;2022-08-14T11:25:28;100081.31;;;27.86;45.51
43707;BME280;61348;53.392;-6.248;2022-08-14T11:28:10;100069.78;;;27.80;45.70
43707;BME280;61348;53.392;-6.248;2022-08-14T11:30:47;100076.44;;;27.77;46.06
43707;BME280;61348;53.392;-6.248;2022-08-14T11:33:25;100075.81;;;27.73;46.27
43707;BME280;61348;53.392;-6.248;2022-08-14T11:35:59;100078.22;;;27.66;46.08
43707;BME280;61348;53.392;-6.248;2022-08-14T11:38:35;100079.47;;;27.65;46.27
43707;BME280;61348;53.392;-6.248;2022-08-14T11:41:03;100077.13;;;27.63;45.99
43707;BME280;61348;53.392;-6.248;2022-08-14T11:43:43;100074.28;;;27.63;45.83
43707;BME280;61348;53.392;-6.248;2022-08-14T11:46:23;100065.91;;;27.60;45.76
43707;BME280;61348;53.392;-6.248;2022-08-14T11:49:01;100065.91;;;27.60;46.34
43707;BME280;61348;53.392;-6.248;2022-08-14T11:51:32;100067.50;;;27.61;45.86
43707;BME280;61348;53.392;-6.248;2022-08-14T11:54:22;100062.09;;;27.63;45.51
43707;BME280;61348;53.392;-6.248;2022-08-14T11:57:01;100068.09;;;27.65;45.65
43707;BME280;61348;53.392;-6.248;2022-08-14T11:59:30;100060.97;;;27.69;45.83
43707;BME280;61348;53.392;-6.248;2022-08-14T12:02:15;100054.19;;;27.67;44.75
43707;BME280;61348;53.392;-6.248;2022-08-14T12:05:03;100052.31;;;27.64;45.14
43707;BME280;61348;53.392;-6.248;2022-08-14T12:07:47;100053.56;;;27.72;45.25
43707;BME280;61348;53.392;-6.248;2022-08-14T12:10:17;100058.59;;;27.68;45.01
43707;BME280;61348;53.392;-6.248;2022-08-14T12:13:19;100063.22;;;27.56;44.95
43707;BME280;61348;53.392;-6.248;2022-08-14T12:15:57;100066.88;;;27.39;45.84
43707;BME280;61348;53.392;-6.248;2022-08-14T12:21:20;100056.16;;;27.06;47.14
43707;BME280;61348;53.392;-6.248;2022-08-14T12:24:05;100058.06;;;26.91;47.28
43707;BME280;61348;53.392;-6.248;2022-08-14T12:26:34;100055.56;;;26.84;47.77
43707;BME280;61348;53.392;-6.248;2022-08-14T12:29:14;100048.91;;;26.78;48.37
43707;BME280;61348;53.392;-6.248;2022-08-14T12:31:42;100044.16;;;26.75;48.26
43707;BME280;61348;53.392;-6.248;2022-08-14T12:34:16;100044.78;;;26.70;48.89
43707;BME280;61348;53.392;-6.248;2022-08-14T12:36:48;100041.31;;;26.75;48.56
43707;BME280;61348;53.392;-6.248;2022-08-14T12:39:22;100048.78;;;26.82;48.61
43707;BME280;61348;53.392;-6.248;2022-08-14T12:41:53;100048.13;;;26.87;48.57
43707;BME280;61348;53.392;-6.248;2022-08-14T12:44:37;100046.81;;;26.70;48.62
43707;BME280;61348;53.392;-6.248;2022-08-14T12:47:10;100042.41;;;26.59;49.42
43707;BME280;61348;53.392;-6.248;2022-08-14T12:49:50;100045.56;;;26.71;49.24
43707;BME280;61348;53.392;-6.248;2022-08-14T12:52:36;100037.06;;;26.80;49.30
43707;BME280;61348;53.392;-6.248;2022-08-14T12:55:21;100040.06;;;26.85;49.44
43707;BME280;61348;53.392;-6.248;2022-08-14T12:57:58;100033.75;;;26.99;49.14
43707;BME280;61348;53.392;-6.248;2022-08-14T13:00:48;100028.41;;;27.10;49.00
43707;BME280;61348;53.392;-6.248;2022-08-14T13:03:38;100032.78;;;27.20;48.75
43707;BME280;61348;53.392;-6.248;2022-08-14T13:06:09;100037.69;;;27.29;48.44
43707;BME280;61348;53.392;-6.248;2022-08-14T13:08:36;100042.91;;;27.40;47.84
43707;BME280;61348;53.392;-6.248;2022-08-14T13:11:13;100029.00;;;27.42;48.15
43707;BME280;61348;53.392;-6.248;2022-08-14T13:13:42;100026.75;;;27.46;47.60
43707;BME280;61348;53.392;-6.248;2022-08-14T13:16:11;100026.94;;;27.42;47.08
43707;BME280;61348;53.392;-6.248;2022-08-14T13:18:59;100033.72;;;27.45;46.82
43707;BME280;61348;53.392;-6.248;2022-08-14T13:21:28;100034.78;;;27.56;46.71
43707;BME280;61348;53.392;-6.248;2022-08-14T13:24:18;100036.59;;;27.77;46.36
43707;BME280;61348;53.392;-6.248;2022-08-14T13:26:47;100042.25;;;27.87;45.70
43707;BME280;61348;53.392;-6.248;2022-08-14T13:29:20;100037.81;;;27.95;45.21
43707;BME280;61348;53.392;-6.248;2022-08-14T13:31:51;100038.31;;;27.93;45.44
43707;BME280;61348;53.392;-6.248;2022-08-14T13:34:22;100039.84;;;27.94;45.39
43707;BME280;61348;53.392;-6.248;2022-08-14T13:36:50;100038.31;;;27.84;45.42
43707;BME280;61348;53.392;-6.248;2022-08-14T13:39:29;100036.50;;;27.63;45.78
43707;BME280;61348;53.392;-6.248;2022-08-14T13:42:04;100055.53;;;27.48;46.12
43707;BME280;61348;53.392;-6.248;2022-08-14T13:44:40;100062.75;;;27.49;45.87